sensor_id;sensor_type;location;lat;lon;timestamp;P1;durP1;ratioP1;P2;durP2;ratioP2
18290;SDS011;9271;48.590;8.866;2023-02-03T00:01:22;2.40;;;1.30;;
18290;SDS011;9271;48.590;8.866;2023-02-03T00:03:49;1.30;;;1.20;;
18290;SDS011;9271;48.590;8.866;2023-02-03T00:06:15;1.50;;;1.20;;
18290;SDS011;9271;48.590;8.866;2023-02-03T00:08:42;1.50;;;1.00;;
18290;SDS011;9271;48.590;8.866;2023-02-03T00:11:09;0.90;;;0.90;;
18290;SDS011;9271;48.590;8.866;2023-02-03T00:13:35;1.20;;;1.10;;
18290;SDS011;9271;48.590;8.866;2023-02-03T00:16:04;0.63;;;0.63;;
18290;SDS011;9271;48.590;8.866;2023-02-03T00:18:31;1.10;;;1.00;;
18290;SDS011;9271;48.590;8.866;2023-02-03T00:20:58;1.77;;;1.10;;
18290;SDS011;9271;48.590;8.866;2023-02-03T00:23:25;2.17;;;1.10;;
18290;SDS011;9271;48.590;8.866;2023-02-03T00:25:54;1.47;;;1.10;;
18290;SDS011;9271;48.590;8.866;2023-02-03T00:28:20;1.37;;;1.00;;
18290;SDS011;9271;48.590;8.866;2023-02-03T00:30:47;1.50;;;0.97;;
18290;SDS011;9271;48.590;8.866;2023-02-03T00:33:15;1.03;;;1.00;;
18290;SDS011;9271;48.590;8.866;2023-02-03T00:35:41;0.90;;;0.90;;
18290;SDS011;9271;48.590;8.866;2023-02-03T00:38:08;0.90;;;0.90;;
18290;SDS011;9271;48.590;8.866;2023-02-03T00:40:35;1.10;;;1.10;;
18290;SDS011;9271;48.590;8.866;2023-02-03T00:43:01;1.00;;;1.00;;
18290;SDS011;9271;48.590;8.866;2023-02-03T00:45:28;1.00;;;0.80;;
18290;SDS011;9271;48.590;8.866;2023-02-03T00:47:54;1.40;;;1.10;;
18290;SDS011;9271;48.590;8.866;2023-02-03T00:50:22;0.90;;;0.90;;
18290;SDS011;9271;48.590;8.866;2023-02-03T00:52:49;1.13;;;1.03;;
18290;SDS011;9271;48.590;8.866;2023-02-03T00:55:16;0.90;;;0.90;;
18290;SDS011;9271;48.590;8.866;2023-02-03T00:57:42;0.90;;;0.90;;
18290;SDS011;9271;48.590;8.866;2023-02-03T01:00:10;1.00;;;1.00;;
18290;SDS011;9271;48.590;8.866;2023-02-03T01:02:37;1.23;;;1.10;;
18290;SDS011;9271;48.590;8.866;2023-02-03T01:05:04;1.07;;;1.07;;
18290;SDS011;9271;48.590;8.866;2023-02-03T01:07:32;0.90;;;0.90;;
18290;SDS011;9271;48.590;8.866;2023-02-03T01:09:59;1.30;;;1.20;;
18290;SDS011;9271;48.590;8.866;2023-02-03T01:12:27;1.07;;;1.00;;
18290;SDS011;9271;48.590;8.866;2023-02-03T01:14:54;0.90;;;0.90;;
18290;SDS011;9271;48.590;8.866;2023-02-03T01:17:21;0.90;;;0.90;;
18290;SDS011;9271;48.590;8.866;2023-02-03T01:19:49;1.63;;;1.00;;
18290;SDS011;9271;48.590;8.866;2023-02-03T01:22:16;1.00;;;1.00;;
18290;SDS011;9271;48.590;8.866;2023-02-03T01:24:44;2.10;;;1.10;;
18290;SDS011;9271;48.590;8.866;2023-02-03T01:27:10;1.37;;;1.13;;
18290;SDS011;9271;48.590;8.866;2023-02-03T01:29:37;1.00;;;1.00;;
18290;SDS011;9271;48.590;8.866;2023-02-03T01:32:04;1.47;;;1.37;;
18290;SDS011;9271;48.590;8.866;2023-02-03T01:34:30;1.37;;;1.20;;
18290;SDS011;9271;48.590;8.866;2023-02-03T01:36:57;1.53;;;1.27;;
18290;SDS011;9271;48.590;8.866;2023-02-03T01:39:24;1.43;;;1.30;;
18290;SDS011;9271;48.590;8.866;2023-02-03T01:41:53;1.40;;;1.30;;
18290;SDS011;9271;48.590;8.866;2023-02-03T01:44:40;1.50;;;1.40;;
18290;SDS011;9271;48.590;8.866;2023-02-03T01:47:10;1.43;;;1.33;;
18290;SDS011;9271;48.590;8.866;2023-02-03T01:49:44;1.57;;;1.40;;
18290;SDS011;9271;48.590;8.866;2023-02-03T01:52:14;1.10;;;1.10;;
18290;SDS011;9271;48.590;8.866;2023-02-03T01:54:43;1.53;;;1.30;;
18290;SDS011;9271;48.590;8.866;2023-02-03T01:57:14;3.13;;;1.73;;
18290;SDS011;9271;48.590;8.866;2023-02-03T01:59:44;1.70;;;1.30;;
18290;SDS011;9271;48.590;8.866;2023-02-03T02:02:11;2.33;;;1.57;;
18290;SDS011;9271;48.590;8.866;2023-02-03T02:04:41;2.83;;;1.50;;
18290;SDS011;9271;48.590;8.866;2023-02-03T02:07:15;1.80;;;1.50;;
18290;SDS011;9271;48.590;8.866;2023-02-03T02:09:42;3.57;;;1.50;;
18290;SDS011;9271;48.590;8.866;2023-02-03T02:12:11;3.30;;;1.67;;
18290;SDS011;9271;48.590;8.866;2023-02-03T02:14:39;2.63;;;1.23;;
18290;SDS011;9271;48.590;8.866;2023-02-03T02:17:09;2.07;;;1.80;;
18290;SDS011;9271;48.590;8.866;2023-02-03T02:19:49;2.80;;;1.83;;
18290;SDS011;9271;48.590;8.866;2023-02-03T02:22:27;1.47;;;1.30;;
18290;SDS011;9271;48.590;8.866;2023-02-03T02:25:02;1.37;;;1.27;;
18290;SDS011;9271;48.590;8.866;2023-02-03T02:27:59;1.33;;;1.23;;
18290;SDS011;9271;48.590;8.866;2023-02-03T02:30:51;1.50;;;1.40;;
18290;SDS011;9271;48.590;8.866;2023-02-03T02:33:35;1.43;;;1.33;;
18290;SDS011;9271;48.590;8.866;2023-02-03T02:36:07;1.50;;;1.40;;
18290;SDS011;9271;48.590;8.866;2023-02-03T02:38:45;2.83;;;1.40;;
18290;SDS011;9271;48.590;8.866;2023-02-03T02:41:20;1.70;;;1.60;;
18290;SDS011;9271;48.590;8.866;2023-02-03T02:43:53;2.27;;;1.70;;
18290;SDS011;9271;48.590;8.866;2023-02-03T02:46:26;1.67;;;1.47;;
18290;SDS011;9271;48.590;8.866;2023-02-03T02:49:00;1.70;;;1.60;;
18290;SDS011;9271;48.590;8.866;2023-02-03T02:51:30;2.37;;;1.53;;
18290;SDS011;9271;48.590;8.866;2023-02-03T02:53:58;1.20;;;1.20;;
18290;SDS011;9271;48.590;8.866;2023-02-03T02:56:26;1.40;;;1.30;;
18290;SDS011;9271;48.590;8.866;2023-02-03T02:58:56;2.10;;;1.40;;
18290;SDS011;9271;48.590;8.866;2023-02-03T03:01:25;2.07;;;1.50;;
18290;SDS011;9271;48.590;8.866;2023-02-03T03:03:52;2.23;;;1.40;;
18290;SDS011;9271;48.590;8.866;2023-02-03T03:06:20;2.23;;;1.37;;
18290;SDS011;9271;48.590;8.866;2023-02-03T03:08:51;1.57;;;1.20;;
18290;SDS011;9271;48.590;8.866;2023-02-03T03:11:21;1.10;;;0.90;;
18290;SDS011;9271;48.590;8.866;2023-02-03T03:13:50;1.93;;;1.30;;
18290;SDS011;9271;48.590;8.866;2023-02-03T03:16:20;1.93;;;1.70;;
18290;SDS011;9271;48.590;8.866;2023-02-03T03:18:50;1.30;;;1.20;;
18290;SDS011;9271;48.590;8.866;2023-02-03T03:21:23;1.47;;;1.03;;
18290;SDS011;9271;48.590;8.866;2023-02-03T03:23:52;3.10;;;1.63;;
18290;SDS011;9271;48.590;8.866;2023-02-03T03:26:23;1.10;;;1.10;;
18290;SDS011;9271;48.590;8.866;2023-02-03T03:28:57;1.00;;;1.00;;
18290;SDS011;9271;48.590;8.866;2023-02-03T03:31:30;1.23;;;1.10;;
18290;SDS011;9271;48.590;8.866;2023-02-03T03:33:57;2.77;;;0.90;;
18290;SDS011;9271;48.590;8.866;2023-02-03T03:36:26;0.70;;;0.70;;
18290;SDS011;9271;48.590;8.866;2023-02-03T03:38:59;0.90;;;0.77;;
18290;SDS011;9271;48.590;8.866;2023-02-03T03:41:34;1.20;;;1.10;;
18290;SDS011;9271;48.590;8.866;2023-02-03T03:44:05;0.83;;;0.83;;
18290;SDS011;9271;48.590;8.866;2023-02-03T03:46:38;0.70;;;0.70;;
18290;SDS011;9271;48.590;8.866;2023-02-03T03:49:10;0.77;;;0.77;;
18290;SDS011;9271;48.590;8.866;2023-02-03T03:51:40;0.80;;;0.80;;
18290;SDS011;9271;48.590;8.866;2023-02-03T03:54:11;0.90;;;0.90;;
18290;SDS011;9271;48.590;8.866;2023-02-03T03:56:42;0.80;;;0.80;;
18290;SDS011;9271;48.590;8.866;2023-02-03T03:59:12;1.27;;;1.00;;
18290;SDS011;9271;48.590;8.866;2023-02-03T04:01:41;0.80;;;0.80;;
18290;SDS011;9271;48.590;8.866;2023-02-03T04:04:09;1.00;;;0.80;;
18290;SDS011;9271;48.590;8.866;2023-02-03T04:06:37;1.90;;;0.90;;
18290;SDS011;9271;48.590;8.866;2023-02-03T04:09:06;1.10;;;1.00;;
18290;SDS011;9271;48.590;8.866;2023-02-03T04:11:32;0.73;;;0.70;;
18290;SDS011;9271;48.590;8.866;2023-02-03T04:14:17;0.70;;;0.70;;
18290;SDS011;9271;48.590;8.866;2023-02-03T04:16:43;0.83;;;0.83;;
18290;SDS011;9271;48.590;8.866;2023-02-03T04:19:10;0.63;;;0.63;;
18290;SDS011;9271;48.590;8.866;2023-02-03T04:21:36;0.70;;;0.70;;
18290;SDS011;9271;48.590;8.866;2023-02-03T04:24:05;1.23;;;0.90;;
18290;SDS011;9271;48.590;8.866;2023-02-03T04:26:32;1.17;;;0.93;;
18290;SDS011;9271;48.590;8.866;2023-02-03T04:28:58;0.83;;;0.83;;
18290;SDS011;9271;48.590;8.866;2023-02-03T04:31:25;0.90;;;0.90;;
18290;SDS011;9271;48.590;8.866;2023-02-03T04:33:52;0.83;;;0.83;;
18290;SDS011;9271;48.590;8.866;2023-02-03T04:36:18;1.10;;;1.00;;
18290;SDS011;9271;48.590;8.866;2023-02-03T04:38:47;1.00;;;1.00;;
18290;SDS011;9271;48.590;8.866;2023-02-03T04:41:14;1.10;;;1.00;;
18290;SDS011;9271;48.590;8.866;2023-02-03T04:43:41;1.20;;;1.10;;
18290;SDS011;9271;48.590;8.866;2023-02-03T04:46:08;1.27;;;1.03;;
18290;SDS011;9271;48.590;8.866;2023-02-03T04:48:35;1.33;;;1.23;;
18290;SDS011;9271;48.590;8.866;2023-02-03T04:51:02;1.57;;;1.20;;
18290;SDS011;9271;48.590;8.866;2023-02-03T04:53:30;1.03;;;1.00;;
18290;SDS011;9271;48.590;8.866;2023-02-03T04:55:57;1.23;;;1.10;;
18290;SDS011;9271;48.590;8.866;2023-02-03T04:58:25;1.47;;;1.10;;
18290;SDS011;9271;48.590;8.866;2023-02-03T05:00:52;1.73;;;1.17;;
18290;SDS011;9271;48.590;8.866;2023-02-03T05:03:19;1.53;;;1.10;;
18290;SDS011;9271;48.590;8.866;2023-02-03T05:05:47;1.00;;;1.00;;
18290;SDS011;9271;48.590;8.866;2023-02-03T05:08:14;1.60;;;1.00;;
18290;SDS011;9271;48.590;8.866;2023-02-03T05:10:41;1.50;;;1.00;;
18290;SDS011;9271;48.590;8.866;2023-02-03T05:13:07;1.00;;;1.00;;
18290;SDS011;9271;48.590;8.866;2023-02-03T05:15:35;1.10;;;1.00;;
18290;SDS011;9271;48.590;8.866;2023-02-03T05:18:02;1.20;;;1.20;;
18290;SDS011;9271;48.590;8.866;2023-02-03T05:20:29;2.17;;;1.00;;
18290;SDS011;9271;48.590;8.866;2023-02-03T05:22:56;1.83;;;1.10;;
18290;SDS011;9271;48.590;8.866;2023-02-03T05:25:23;1.20;;;1.20;;
18290;SDS011;9271;48.590;8.866;2023-02-03T05:27:49;0.93;;;0.93;;
18290;SDS011;9271;48.590;8.866;2023-02-03T05:30:16;1.80;;;1.20;;
18290;SDS011;9271;48.590;8.866;2023-02-03T05:32:44;1.20;;;1.10;;
18290;SDS011;9271;48.590;8.866;2023-02-03T05:35:11;0.80;;;0.80;;
18290;SDS011;9271;48.590;8.866;2023-02-03T05:37:38;0.90;;;0.90;;
18290;SDS011;9271;48.590;8.866;2023-02-03T05:40:05;1.30;;;1.20;;
18290;SDS011;9271;48.590;8.866;2023-02-03T05:42:50;1.17;;;1.10;;
18290;SDS011;9271;48.590;8.866;2023-02-03T05:45:17;2.20;;;1.03;;
18290;SDS011;9271;48.590;8.866;2023-02-03T05:47:45;1.50;;;1.30;;
18290;SDS011;9271;48.590;8.866;2023-02-03T05:50:11;2.33;;;1.50;;
18290;SDS011;9271;48.590;8.866;2023-02-03T05:52:38;2.13;;;1.30;;
18290;SDS011;9271;48.590;8.866;2023-02-03T05:55:05;1.47;;;1.33;;
18290;SDS011;9271;48.590;8.866;2023-02-03T05:57:32;1.70;;;1.27;;
18290;SDS011;9271;48.590;8.866;2023-02-03T05:59:58;1.80;;;1.30;;
18290;SDS011;9271;48.590;8.866;2023-02-03T06:02:25;1.30;;;1.20;;
18290;SDS011;9271;48.590;8.866;2023-02-03T06:04:53;1.40;;;1.30;;
18290;SDS011;9271;48.590;8.866;2023-02-03T06:07:19;2.07;;;1.67;;
18290;SDS011;9271;48.590;8.866;2023-02-03T06:09:46;2.97;;;1.60;;
18290;SDS011;9271;48.590;8.866;2023-02-03T06:12:13;2.20;;;1.73;;
18290;SDS011;9271;48.590;8.866;2023-02-03T06:14:40;3.03;;;1.80;;
18290;SDS011;9271;48.590;8.866;2023-02-03T06:17:07;1.57;;;1.40;;
18290;SDS011;9271;48.590;8.866;2023-02-03T06:19:33;2.60;;;1.60;;
18290;SDS011;9271;48.590;8.866;2023-02-03T06:22:01;1.77;;;1.60;;
18290;SDS011;9271;48.590;8.866;2023-02-03T06:24:28;1.20;;;1.20;;
18290;SDS011;9271;48.590;8.866;2023-02-03T06:26:54;1.37;;;1.27;;
18290;SDS011;9271;48.590;8.866;2023-02-03T06:29:21;1.80;;;1.07;;
18290;SDS011;9271;48.590;8.866;2023-02-03T06:31:48;1.20;;;1.00;;
18290;SDS011;9271;48.590;8.866;2023-02-03T06:34:14;1.40;;;1.30;;
18290;SDS011;9271;48.590;8.866;2023-02-03T06:36:41;1.20;;;1.10;;
18290;SDS011;9271;48.590;8.866;2023-02-03T06:39:09;1.10;;;1.10;;
18290;SDS011;9271;48.590;8.866;2023-02-03T06:41:35;1.47;;;1.20;;
18290;SDS011;9271;48.590;8.866;2023-02-03T06:44:02;1.40;;;1.30;;
18290;SDS011;9271;48.590;8.866;2023-02-03T06:46:29;2.00;;;1.60;;
18290;SDS011;9271;48.590;8.866;2023-02-03T06:48:56;2.40;;;2.20;;
18290;SDS011;9271;48.590;8.866;2023-02-03T06:51:23;1.57;;;1.47;;
18290;SDS011;9271;48.590;8.866;2023-02-03T06:53:49;1.97;;;1.37;;
18290;SDS011;9271;48.590;8.866;2023-02-03T06:56:17;1.30;;;1.20;;
18290;SDS011;9271;48.590;8.866;2023-02-03T06:58:44;2.90;;;1.67;;
18290;SDS011;9271;48.590;8.866;2023-02-03T07:01:10;1.23;;;1.23;;
18290;SDS011;9271;48.590;8.866;2023-02-03T07:03:37;1.87;;;1.70;;
18290;SDS011;9271;48.590;8.866;2023-02-03T07:06:04;1.97;;;1.37;;
18290;SDS011;9271;48.590;8.866;2023-02-03T07:08:31;1.30;;;1.20;;
18290;SDS011;9271;48.590;8.866;2023-02-03T07:10:58;2.53;;;1.70;;
18290;SDS011;9271;48.590;8.866;2023-02-03T07:13:27;1.77;;;1.40;;
18290;SDS011;9271;48.590;8.866;2023-02-03T07:15:53;1.50;;;1.40;;
18290;SDS011;9271;48.590;8.866;2023-02-03T07:18:20;2.10;;;1.37;;
18290;SDS011;9271;48.590;8.866;2023-02-03T07:20:48;2.10;;;1.20;;
18290;SDS011;9271;48.590;8.866;2023-02-03T07:23:15;1.90;;;1.57;;
18290;SDS011;9271;48.590;8.866;2023-02-03T07:25:42;1.63;;;1.50;;
18290;SDS011;9271;48.590;8.866;2023-02-03T07:28:09;1.83;;;1.50;;
18290;SDS011;9271;48.590;8.866;2023-02-03T07:30:37;4.40;;;1.63;;
18290;SDS011;9271;48.590;8.866;2023-02-03T07:33:03;2.60;;;1.80;;
18290;SDS011;9271;48.590;8.866;2023-02-03T07:35:31;2.20;;;1.50;;
18290;SDS011;9271;48.590;8.866;2023-02-03T07:37:58;2.50;;;1.53;;
18290;SDS011;9271;48.590;8.866;2023-02-03T07:40:25;2.10;;;1.80;;
18290;SDS011;9271;48.590;8.866;2023-02-03T07:42:51;1.80;;;1.70;;
18290;SDS011;9271;48.590;8.866;2023-02-03T07:45:18;2.13;;;1.80;;
18290;SDS011;9271;48.590;8.866;2023-02-03T07:47:47;2.20;;;1.83;;
18290;SDS011;9271;48.590;8.866;2023-02-03T07:50:14;3.03;;;2.30;;
18290;SDS011;9271;48.590;8.866;2023-02-03T07:52:40;2.40;;;2.20;;
18290;SDS011;9271;48.590;8.866;2023-02-03T07:55:07;1.93;;;1.83;;
18290;SDS011;9271;48.590;8.866;2023-02-03T07:57:34;3.13;;;2.20;;
18290;SDS011;9271;48.590;8.866;2023-02-03T08:00:02;4.10;;;2.30;;
18290;SDS011;9271;48.590;8.866;2023-02-03T08:02:29;2.30;;;2.10;;
18290;SDS011;9271;48.590;8.866;2023-02-03T08:04:57;4.10;;;2.60;;
18290;SDS011;9271;48.590;8.866;2023-02-03T08:07:24;2.80;;;2.37;;
18290;SDS011;9271;48.590;8.866;2023-02-03T08:09:51;2.83;;;2.10;;
18290;SDS011;9271;48.590;8.866;2023-02-03T08:12:17;4.80;;;2.53;;
18290;SDS011;9271;48.590;8.866;2023-02-03T08:14:44;2.57;;;2.03;;
18290;SDS011;9271;48.590;8.866;2023-02-03T08:17:10;2.43;;;2.23;;
18290;SDS011;9271;48.590;8.866;2023-02-03T08:19:37;2.97;;;2.33;;
18290;SDS011;9271;48.590;8.866;2023-02-03T08:22:05;3.40;;;2.23;;
18290;SDS011;9271;48.590;8.866;2023-02-03T08:24:32;2.00;;;1.90;;
18290;SDS011;9271;48.590;8.866;2023-02-03T08:26:59;2.03;;;1.90;;
18290;SDS011;9271;48.590;8.866;2023-02-03T08:29:26;2.27;;;2.07;;
18290;SDS011;9271;48.590;8.866;2023-02-03T08:31:52;3.17;;;2.10;;
18290;SDS011;9271;48.590;8.866;2023-02-03T08:34:20;2.33;;;2.00;;
18290;SDS011;9271;48.590;8.866;2023-02-03T08:36:46;3.10;;;2.10;;
18290;SDS011;9271;48.590;8.866;2023-02-03T08:39:14;2.33;;;2.13;;
18290;SDS011;9271;48.590;8.866;2023-02-03T08:41:41;5.27;;;2.00;;
18290;SDS011;9271;48.590;8.866;2023-02-03T08:44:07;2.50;;;1.93;;
18290;SDS011;9271;48.590;8.866;2023-02-03T08:46:34;3.00;;;2.43;;
18290;SDS011;9271;48.590;8.866;2023-02-03T08:49:07;4.37;;;2.90;;
18290;SDS011;9271;48.590;8.866;2023-02-03T08:51:34;4.00;;;2.40;;
18290;SDS011;9271;48.590;8.866;2023-02-03T08:54:00;3.67;;;2.50;;
18290;SDS011;9271;48.590;8.866;2023-02-03T08:56:28;5.73;;;3.57;;
18290;SDS011;9271;48.590;8.866;2023-02-03T08:58:55;3.20;;;2.17;;
18290;SDS011;9271;48.590;8.866;2023-02-03T09:01:22;3.50;;;2.30;;
18290;SDS011;9271;48.590;8.866;2023-02-03T09:03:48;4.27;;;2.63;;
18290;SDS011;9271;48.590;8.866;2023-02-03T09:06:15;3.67;;;2.40;;
18290;SDS011;9271;48.590;8.866;2023-02-03T09:08:42;3.77;;;2.37;;
18290;SDS011;9271;48.590;8.866;2023-02-03T09:11:10;2.20;;;2.00;;
18290;SDS011;9271;48.590;8.866;2023-02-03T09:13:39;2.83;;;1.47;;
18290;SDS011;9271;48.590;8.866;2023-02-03T09:16:10;3.57;;;1.43;;
18290;SDS011;9271;48.590;8.866;2023-02-03T09:18:37;1.50;;;1.40;;
18290;SDS011;9271;48.590;8.866;2023-02-03T09:21:04;4.17;;;1.53;;
18290;SDS011;9271;48.590;8.866;2023-02-03T09:23:33;2.50;;;1.40;;
18290;SDS011;9271;48.590;8.866;2023-02-03T09:26:00;1.40;;;1.33;;
18290;SDS011;9271;48.590;8.866;2023-02-03T09:28:27;1.40;;;1.30;;
18290;SDS011;9271;48.590;8.866;2023-02-03T09:30:59;1.90;;;1.33;;
18290;SDS011;9271;48.590;8.866;2023-02-03T09:33:26;1.87;;;1.10;;
18290;SDS011;9271;48.590;8.866;2023-02-03T09:35:52;1.10;;;1.07;;
18290;SDS011;9271;48.590;8.866;2023-02-03T09:38:19;1.30;;;1.20;;
18290;SDS011;9271;48.590;8.866;2023-02-03T09:40:48;2.17;;;1.47;;
18290;SDS011;9271;48.590;8.866;2023-02-03T09:43:23;1.90;;;1.67;;
18290;SDS011;9271;48.590;8.866;2023-02-03T09:46:00;1.93;;;1.60;;
18290;SDS011;9271;48.590;8.866;2023-02-03T09:48:32;2.30;;;1.70;;
18290;SDS011;9271;48.590;8.866;2023-02-03T09:51:03;1.00;;;0.90;;
18290;SDS011;9271;48.590;8.866;2023-02-03T09:53:33;0.70;;;0.70;;
18290;SDS011;9271;48.590;8.866;2023-02-03T09:56:09;0.70;;;0.70;;
18290;SDS011;9271;48.590;8.866;2023-02-03T09:58:43;2.47;;;0.53;;
18290;SDS011;9271;48.590;8.866;2023-02-03T10:01:11;1.10;;;1.00;;
18290;SDS011;9271;48.590;8.866;2023-02-03T10:03:41;0.77;;;0.70;;
18290;SDS011;9271;48.590;8.866;2023-02-03T10:06:15;3.57;;;0.70;;
18290;SDS011;9271;48.590;8.866;2023-02-03T10:08:55;1.30;;;0.93;;
18290;SDS011;9271;48.590;8.866;2023-02-03T10:11:34;0.80;;;0.80;;
18290;SDS011;9271;48.590;8.866;2023-02-03T10:14:18;1.20;;;0.70;;
18290;SDS011;9271;48.590;8.866;2023-02-03T10:17:04;0.90;;;0.90;;
18290;SDS011;9271;48.590;8.866;2023-02-03T10:19:43;0.63;;;0.63;;
18290;SDS011;9271;48.590;8.866;2023-02-03T10:22:16;0.70;;;0.70;;
18290;SDS011;9271;48.590;8.866;2023-02-03T10:24:47;1.20;;;1.00;;
18290;SDS011;9271;48.590;8.866;2023-02-03T10:27:17;1.00;;;1.00;;
18290;SDS011;9271;48.590;8.866;2023-02-03T10:29:47;1.07;;;1.07;;
18290;SDS011;9271;48.590;8.866;2023-02-03T10:32:23;0.80;;;0.80;;
18290;SDS011;9271;48.590;8.866;2023-02-03T10:34:52;1.03;;;1.00;;
18290;SDS011;9271;48.590;8.866;2023-02-03T10:37:22;2.20;;;0.80;;
18290;SDS011;9271;48.590;8.866;2023-02-03T10:39:52;1.47;;;1.17;;
18290;SDS011;9271;48.590;8.866;2023-02-03T10:42:20;1.00;;;1.00;;
18290;SDS011;9271;48.590;8.866;2023-02-03T10:44:48;0.90;;;0.90;;
18290;SDS011;9271;48.590;8.866;2023-02-03T10:47:20;0.90;;;0.90;;
18290;SDS011;9271;48.590;8.866;2023-02-03T10:49:52;0.93;;;0.90;;
18290;SDS011;9271;48.590;8.866;2023-02-03T10:52:24;1.07;;;1.07;;
18290;SDS011;9271;48.590;8.866;2023-02-03T10:54:53;1.53;;;1.30;;
18290;SDS011;9271;48.590;8.866;2023-02-03T10:57:23;2.60;;;1.10;;
18290;SDS011;9271;48.590;8.866;2023-02-03T10:59:50;2.13;;;0.80;;
18290;SDS011;9271;48.590;8.866;2023-02-03T11:02:21;0.60;;;0.60;;
18290;SDS011;9271;48.590;8.866;2023-02-03T11:07:43;0.60;;;0.60;;
18290;SDS011;9271;48.590;8.866;2023-02-03T11:10:24;2.03;;;0.60;;
18290;SDS011;9271;48.590;8.866;2023-02-03T11:12:55;0.73;;;0.73;;
18290;SDS011;9271;48.590;8.866;2023-02-03T11:15:42;1.00;;;0.90;;
18290;SDS011;9271;48.590;8.866;2023-02-03T11:21:09;0.70;;;0.70;;
18290;SDS011;9271;48.590;8.866;2023-02-03T11:23:43;1.37;;;0.67;;
18290;SDS011;9271;48.590;8.866;2023-02-03T11:26:14;0.90;;;0.43;;
18290;SDS011;9271;48.590;8.866;2023-02-03T11:28:45;0.80;;;0.80;;
18290;SDS011;9271;48.590;8.866;2023-02-03T11:31:15;0.80;;;0.80;;
18290;SDS011;9271;48.590;8.866;2023-02-03T11:33:45;0.70;;;0.60;;
18290;SDS011;9271;48.590;8.866;2023-02-03T11:36:15;0.83;;;0.83;;
18290;SDS011;9271;48.590;8.866;2023-02-03T11:38:43;0.50;;;0.50;;
18290;SDS011;9271;48.590;8.866;2023-02-03T11:41:14;0.43;;;0.43;;
18290;SDS011;9271;48.590;8.866;2023-02-03T11:43:42;4.33;;;0.70;;
18290;SDS011;9271;48.590;8.866;2023-02-03T11:46:09;0.73;;;0.57;;
18290;SDS011;9271;48.590;8.866;2023-02-03T11:48:36;0.93;;;0.43;;
18290;SDS011;9271;48.590;8.866;2023-02-03T11:51:11;2.50;;;0.70;;
18290;SDS011;9271;48.590;8.866;2023-02-03T11:53:55;1.50;;;0.60;;
18290;SDS011;9271;48.590;8.866;2023-02-03T11:56:40;0.70;;;0.70;;
18290;SDS011;9271;48.590;8.866;2023-02-03T11:59:25;0.50;;;0.50;;
18290;SDS011;9271;48.590;8.866;2023-02-03T12:08:08;1.33;;;0.70;;
18290;SDS011;9271;48.590;8.866;2023-02-03T12:10:56;1.97;;;1.10;;
18290;SDS011;9271;48.590;8.866;2023-02-03T12:13:34;2.03;;;1.40;;
18290;SDS011;9271;48.590;8.866;2023-02-03T12:16:21;0.80;;;0.80;;
18290;SDS011;9271;48.590;8.866;2023-02-03T12:19:11;7.37;;;0.80;;
18290;SDS011;9271;48.590;8.866;2023-02-03T12:21:43;1.27;;;0.70;;
18290;SDS011;9271;48.590;8.866;2023-02-03T12:24:17;1.17;;;0.80;;
18290;SDS011;9271;48.590;8.866;2023-02-03T12:26:56;2.20;;;0.60;;
18290;SDS011;9271;48.590;8.866;2023-02-03T12:29:31;1.50;;;0.60;;
18290;SDS011;9271;48.590;8.866;2023-02-03T12:32:04;0.90;;;0.80;;
18290;SDS011;9271;48.590;8.866;2023-02-03T12:34:37;0.50;;;0.50;;
18290;SDS011;9271;48.590;8.866;2023-02-03T12:37:11;1.00;;;0.90;;
18290;SDS011;9271;48.590;8.866;2023-02-03T12:39:44;0.70;;;0.70;;
18290;SDS011;9271;48.590;8.866;2023-02-03T12:42:14;0.80;;;0.80;;
18290;SDS011;9271;48.590;8.866;2023-02-03T12:44:46;1.47;;;0.87;;
18290;SDS011;9271;48.590;8.866;2023-02-03T12:47:18;1.37;;;1.20;;
18290;SDS011;9271;48.590;8.866;2023-02-03T12:49:52;0.93;;;0.93;;
18290;SDS011;9271;48.590;8.866;2023-02-03T12:52:22;1.10;;;1.00;;
18290;SDS011;9271;48.590;8.866;2023-02-03T12:54:55;1.10;;;0.90;;
18290;SDS011;9271;48.590;8.866;2023-02-03T12:57:28;0.77;;;0.70;;
18290;SDS011;9271;48.590;8.866;2023-02-03T13:00:13;0.80;;;0.80;;
18290;SDS011;9271;48.590;8.866;2023-02-03T13:02:51;0.80;;;0.80;;
18290;SDS011;9271;48.590;8.866;2023-02-03T13:05:40;1.23;;;0.80;;
18290;SDS011;9271;48.590;8.866;2023-02-03T13:08:14;1.13;;;0.90;;
18290;SDS011;9271;48.590;8.866;2023-02-03T13:10:49;0.80;;;0.80;;
18290;SDS011;9271;48.590;8.866;2023-02-03T13:13:20;1.10;;;0.93;;
18290;SDS011;9271;48.590;8.866;2023-02-03T13:15:53;1.90;;;0.70;;
18290;SDS011;9271;48.590;8.866;2023-02-03T13:18:23;1.30;;;0.77;;
18290;SDS011;9271;48.590;8.866;2023-02-03T13:20:53;1.93;;;0.73;;
18290;SDS011;9271;48.590;8.866;2023-02-03T13:23:20;1.43;;;0.90;;
18290;SDS011;9271;48.590;8.866;2023-02-03T13:25:52;2.57;;;0.60;;
18290;SDS011;9271;48.590;8.866;2023-02-03T13:28:47;0.67;;;0.67;;
18290;SDS011;9271;48.590;8.866;2023-02-03T13:31:28;1.17;;;0.70;;
18290;SDS011;9271;48.590;8.866;2023-02-03T13:34:06;1.70;;;0.40;;
18290;SDS011;9271;48.590;8.866;2023-02-03T13:36:50;2.00;;;0.40;;
18290;SDS011;9271;48.590;8.866;2023-02-03T13:39:44;1.40;;;1.20;;
18290;SDS011;9271;48.590;8.866;2023-02-03T13:42:20;0.67;;;0.67;;
18290;SDS011;9271;48.590;8.866;2023-02-03T13:44:51;0.80;;;0.57;;
18290;SDS011;9271;48.590;8.866;2023-02-03T13:47:22;2.03;;;0.80;;
18290;SDS011;9271;48.590;8.866;2023-02-03T13:49:52;1.90;;;1.00;;
18290;SDS011;9271;48.590;8.866;2023-02-03T13:52:24;1.07;;;0.60;;
18290;SDS011;9271;48.590;8.866;2023-02-03T13:54:54;0.63;;;0.53;;
18290;SDS011;9271;48.590;8.866;2023-02-03T13:57:27;0.97;;;0.70;;
18290;SDS011;9271;48.590;8.866;2023-02-03T13:59:59;1.23;;;0.77;;
18290;SDS011;9271;48.590;8.866;2023-02-03T14:11:38;0.70;;;0.67;;
18290;SDS011;9271;48.590;8.866;2023-02-03T14:23:27;1.93;;;0.73;;
18290;SDS011;9271;48.590;8.866;2023-02-03T14:26:00;0.73;;;0.70;;
18290;SDS011;9271;48.590;8.866;2023-02-03T14:28:30;1.93;;;0.80;;
18290;SDS011;9271;48.590;8.866;2023-02-03T14:31:09;1.37;;;1.27;;
18290;SDS011;9271;48.590;8.866;2023-02-03T14:33:50;1.97;;;1.53;;
18290;SDS011;9271;48.590;8.866;2023-02-03T14:36:27;1.50;;;0.90;;
18290;SDS011;9271;48.590;8.866;2023-02-03T14:38:57;0.73;;;0.60;;
18290;SDS011;9271;48.590;8.866;2023-02-03T14:41:28;0.70;;;0.70;;
18290;SDS011;9271;48.590;8.866;2023-02-03T14:44:05;1.47;;;0.60;;
18290;SDS011;9271;48.590;8.866;2023-02-03T14:46:45;1.83;;;0.70;;
18290;SDS011;9271;48.590;8.866;2023-02-03T14:49:34;0.77;;;0.50;;
18290;SDS011;9271;48.590;8.866;2023-02-03T14:52:17;1.47;;;1.10;;
18290;SDS011;9271;48.590;8.866;2023-02-03T14:55:03;0.97;;;0.60;;
18290;SDS011;9271;48.590;8.866;2023-02-03T14:57:39;0.90;;;0.90;;
18290;SDS011;9271;48.590;8.866;2023-02-03T15:00:23;2.60;;;0.90;;
18290;SDS011;9271;48.590;8.866;2023-02-03T15:05:47;0.80;;;0.80;;
18290;SDS011;9271;48.590;8.866;2023-02-03T15:08:32;0.43;;;0.40;;
18290;SDS011;9271;48.590;8.866;2023-02-03T15:14:14;0.80;;;0.80;;
18290;SDS011;9271;48.590;8.866;2023-02-03T15:16:45;1.13;;;0.70;;
18290;SDS011;9271;48.590;8.866;2023-02-03T15:19:18;0.80;;;0.80;;
18290;SDS011;9271;48.590;8.866;2023-02-03T15:21:47;0.70;;;0.70;;
18290;SDS011;9271;48.590;8.866;2023-02-03T15:24:15;0.53;;;0.53;;
18290;SDS011;9271;48.590;8.866;2023-02-03T15:26:46;0.87;;;0.87;;
18290;SDS011;9271;48.590;8.866;2023-02-03T15:29:18;1.10;;;1.00;;
18290;SDS011;9271;48.590;8.866;2023-02-03T15:31:51;1.20;;;1.10;;
18290;SDS011;9271;48.590;8.866;2023-02-03T15:34:28;1.03;;;1.00;;
18290;SDS011;9271;48.590;8.866;2023-02-03T15:36:59;2.33;;;1.67;;
18290;SDS011;9271;48.590;8.866;2023-02-03T15:39:34;6.20;;;1.80;;
18290;SDS011;9271;48.590;8.866;2023-02-03T15:42:07;6.43;;;1.67;;
18290;SDS011;9271;48.590;8.866;2023-02-03T15:44:42;1.30;;;1.20;;
18290;SDS011;9271;48.590;8.866;2023-02-03T15:47:18;1.20;;;1.10;;
18290;SDS011;9271;48.590;8.866;2023-02-03T15:49:55;1.70;;;0.70;;
18290;SDS011;9271;48.590;8.866;2023-02-03T15:52:27;1.50;;;1.40;;
18290;SDS011;9271;48.590;8.866;2023-02-03T15:54:58;1.20;;;1.10;;
18290;SDS011;9271;48.590;8.866;2023-02-03T15:57:32;1.20;;;1.10;;